createdAt,value
2022-08-04T00:00:11.057Z,27.44
2022-08-04T00:02:51.791Z,27.49
2022-08-04T00:05:29.510Z,27.46
2022-08-04T00:08:06.606Z,27.51
2022-08-04T00:10:36.005Z,27.49
2022-08-04T00:13:06.492Z,27.47
2022-08-04T00:15:36.586Z,27.46
2022-08-04T00:18:06.621Z,27.50
2022-08-04T00:20:38.944Z,27.51
2022-08-04T00:23:09.048Z,27.51
2022-08-04T00:25:41.050Z,27.50
2022-08-04T00:28:09.916Z,27.51
2022-08-04T00:30:42.356Z,27.46
2022-08-04T00:33:10.552Z,27.44
2022-08-04T00:35:39.755Z,27.44
2022-08-04T00:38:09.624Z,27.42
2022-08-04T00:40:48.913Z,27.36
2022-08-04T00:43:24.020Z,27.32
2022-08-04T00:46:23.638Z,27.30
2022-08-04T00:49:20.992Z,27.31
2022-08-04T00:52:31.657Z,27.26
2022-08-04T00:54:53.480Z,27.27
2022-08-04T00:57:34.598Z,27.18
2022-08-04T01:00:09.510Z,27.14
2022-08-04T01:02:47.407Z,27.10
2022-08-04T01:05:22.936Z,27.06
2022-08-04T01:08:16.464Z,27.06
2022-08-04T01:10:58.983Z,27.02
2022-08-04T01:13:52.876Z,27.05
2022-08-04T01:16:25.812Z,27.00
2022-08-04T01:19:00.153Z,26.95
2022-08-04T01:22:18.741Z,26.94
2022-08-04T01:25:02.380Z,26.89
2022-08-04T01:27:51.326Z,26.91
2022-08-04T01:30:20.737Z,26.88
2022-08-04T01:32:52.546Z,26.83
2022-08-04T01:35:47.248Z,26.83
2022-08-04T01:38:21.438Z,26.80
2022-08-04T01:40:53.367Z,26.75
2022-08-04T01:43:21.811Z,26.68
2022-08-04T01:45:57.937Z,26.66
2022-08-04T01:48:27.734Z,26.67
2022-08-04T01:50:59.713Z,26.56
2022-08-04T01:53:32.554Z,26.57
2022-08-04T01:56:02.512Z,26.50
2022-08-04T01:58:32.507Z,26.49
2022-08-04T02:01:08.349Z,26.48
2022-08-04T02:04:20.160Z,26.42
2022-08-04T02:06:33.531Z,26.39
2022-08-04T02:09:13.516Z,26.41
2022-08-04T02:11:42.512Z,26.37
2022-08-04T02:14:40.528Z,26.40
2022-08-04T02:17:13.362Z,26.33
2022-08-04T02:20:02.511Z,26.30
2022-08-04T02:22:34.368Z,26.26
2022-08-04T02:25:08.883Z,26.16
2022-08-04T02:28:03.056Z,26.11
2022-08-04T02:30:41.224Z,26.13
2022-08-04T02:33:18.966Z,26.10
2022-08-04T02:35:52.440Z,26.10
2022-08-04T02:38:28.874Z,26.09
2022-08-04T02:41:01.743Z,26.00
2022-08-04T02:43:50.696Z,26.02
2022-08-04T02:46:20.560Z,25.89
2022-08-04T02:48:51.485Z,25.92
2022-08-04T02:51:24.639Z,25.89
2022-08-04T02:53:54.262Z,25.90
2022-08-04T02:56:23.648Z,25.86
2022-08-04T02:58:57.693Z,25.78
2022-08-04T03:01:25.781Z,25.77
2022-08-04T03:04:24.683Z,25.61
2022-08-04T03:07:32.474Z,25.59
2022-08-04T03:10:28.638Z,25.61
2022-08-04T03:13:41.502Z,25.61
2022-08-04T03:16:30.001Z,25.61
2022-08-04T03:19:30.178Z,25.58
2022-08-04T03:22:29.982Z,25.57
2022-08-04T03:25:35.861Z,25.58
2022-08-04T03:28:50.230Z,25.58
2022-08-04T03:31:45.035Z,25.59
2022-08-04T03:34:29.319Z,25.55
2022-08-04T03:37:14.020Z,25.53
2022-08-04T03:40:13.433Z,25.46
2022-08-04T03:43:06.073Z,25.50
2022-08-04T03:46:15.660Z,25.52
2022-08-04T03:49:05.356Z,25.47
2022-08-04T03:52:01.059Z,25.46
2022-08-04T03:54:54.245Z,25.47
2022-08-04T03:57:53.489Z,25.38
2022-08-04T04:00:22.512Z,25.23
2022-08-04T04:03:29.288Z,25.24
2022-08-04T04:06:53.967Z,25.27
2022-08-04T04:09:56.978Z,25.16
2022-08-04T04:12:58.167Z,25.21
2022-08-04T04:16:00.837Z,25.21
2022-08-04T04:18:50.328Z,25.27
2022-08-04T04:21:32.806Z,25.17
2022-08-04T04:24:18.263Z,25.21
2022-08-04T04:26:58.312Z,25.22
2022-08-04T04:29:57.708Z,25.40
2022-08-04T04:32:34.330Z,25.39
2022-08-04T04:35:14.853Z,25.46
2022-08-04T04:37:58.067Z,25.46
2022-08-04T04:40:35.855Z,25.50
2022-08-04T04:43:17.876Z,25.57
2022-08-04T04:45:52.305Z,25.36
2022-08-04T04:48:32.035Z,25.49
2022-08-04T04:51:12.953Z,25.41
2022-08-04T04:53:48.488Z,25.52
2022-08-04T04:56:26.450Z,25.68
2022-08-04T04:58:57.713Z,25.60
2022-08-04T05:01:50.169Z,25.73
2022-08-04T05:04:52.858Z,25.79
2022-08-04T05:07:53.128Z,25.75
2022-08-04T05:10:35.039Z,25.76
2022-08-04T05:14:36.960Z,25.88
2022-08-04T05:16:27.121Z,25.75
2022-08-04T05:19:04.946Z,25.84
2022-08-04T05:21:40.893Z,25.89
2022-08-04T05:24:13.140Z,25.75
2022-08-04T05:26:45.883Z,26.05
2022-08-04T05:29:19.789Z,26.03
2022-08-04T05:31:52.527Z,26.10
2022-08-04T05:34:25.103Z,25.96
2022-08-04T05:36:56.724Z,26.16
2022-08-04T05:39:31.071Z,26.30
2022-08-04T05:42:04.314Z,26.43
2022-08-04T05:44:36.274Z,26.63
2022-08-04T05:47:07.754Z,26.48
2022-08-04T05:49:37.523Z,26.37
2022-08-04T05:52:08.181Z,26.72
2022-08-04T05:54:39.983Z,26.81
2022-08-04T05:57:10.203Z,27.00
2022-08-04T05:59:42.345Z,26.93
2022-08-04T06:02:12.619Z,27.04
2022-08-04T06:04:43.299Z,27.07
2022-08-04T06:07:12.164Z,27.04
2022-08-04T06:09:40.237Z,27.00
2022-08-04T06:12:12.095Z,27.05
2022-08-04T06:14:43.334Z,27.17
2022-08-04T06:19:57.716Z,27.24
2022-08-04T06:20:18.470Z,27.30
2022-08-04T06:22:54.014Z,27.17
2022-08-04T06:25:26.619Z,27.16
2022-08-04T06:27:57.043Z,27.25
2022-08-04T06:30:27.405Z,27.29
2022-08-04T06:33:04.333Z,27.39
2022-08-04T06:35:34.308Z,27.28
2022-08-04T06:38:03.867Z,27.33
2022-08-04T06:40:34.091Z,27.34
2022-08-04T06:43:04.013Z,27.42
2022-08-04T06:45:34.707Z,27.72
2022-08-04T06:48:06.087Z,27.70
2022-08-04T06:51:28.278Z,28.34
2022-08-04T06:53:25.403Z,28.39
2022-08-04T06:55:54.943Z,28.34
2022-08-04T06:58:24.037Z,28.48
2022-08-04T07:00:52.990Z,28.42
2022-08-04T07:03:23.076Z,28.57
2022-08-04T07:05:52.631Z,28.62
2022-08-04T07:08:21.882Z,28.64
2022-08-04T07:10:51.057Z,28.72
2022-08-04T07:13:20.381Z,28.68
2022-08-04T07:15:49.261Z,28.76
2022-08-04T07:18:18.002Z,28.96
2022-08-04T07:20:48.373Z,29.01
2022-08-04T07:23:19.846Z,28.83
2022-08-04T07:26:00.915Z,28.98
2022-08-04T07:28:41.803Z,29.15
2022-08-04T07:31:32.920Z,29.28
2022-08-04T07:34:16.943Z,29.25
2022-08-04T07:36:55.729Z,29.60
2022-08-04T07:39:28.743Z,29.67
2022-08-04T07:42:01.140Z,29.95
2022-08-04T07:44:30.918Z,29.97
2022-08-04T07:46:59.308Z,29.89
2022-08-04T07:49:54.953Z,29.83
2022-08-04T07:52:17.631Z,30.02
2022-08-04T07:54:46.074Z,30.01
2022-08-04T07:57:19.548Z,30.17
2022-08-04T08:00:02.135Z,30.32
2022-08-04T08:02:40.376Z,30.34
2022-08-04T08:05:11.104Z,30.35
2022-08-04T08:07:50.076Z,30.48
2022-08-04T08:10:19.417Z,30.47
2022-08-04T08:12:51.202Z,30.61
2022-08-04T08:15:21.003Z,30.65
2022-08-04T08:17:59.446Z,30.53
2022-08-04T08:20:30.785Z,30.65
2022-08-04T08:23:01.904Z,30.69
2022-08-04T08:25:32.446Z,30.83
2022-08-04T08:28:01.046Z,30.90
2022-08-04T08:30:31.508Z,30.97
2022-08-04T08:33:01.213Z,30.92
2022-08-04T08:35:35.396Z,31.15
2022-08-04T08:38:12.531Z,31.15
2022-08-04T08:40:50.433Z,31.37
2022-08-04T08:44:06.395Z,31.65
2022-08-04T08:46:50.437Z,31.75
2022-08-04T08:50:00.619Z,31.94
2022-08-04T08:53:01.272Z,31.94
2022-08-04T08:55:43.983Z,31.94
2022-08-04T08:58:32.398Z,32.11
2022-08-04T09:01:08.125Z,32.22
2022-08-04T09:04:22.721Z,32.23
2022-08-04T09:07:23.600Z,32.59
2022-08-04T09:10:04.633Z,32.67
2022-08-04T09:12:41.451Z,32.81
2022-08-04T09:15:14.894Z,32.86
2022-08-04T09:17:53.274Z,32.98
2022-08-04T09:20:32.682Z,33.94
2022-08-04T09:23:18.291Z,34.15
2022-08-04T09:25:52.499Z,35.09
2022-08-04T09:28:52.471Z,34.41
2022-08-04T09:31:18.064Z,35.71
2022-08-04T09:33:51.890Z,36.42
2022-08-04T09:36:31.229Z,36.68
2022-08-04T09:39:09.579Z,37.32
2022-08-04T09:41:49.232Z,37.18
2022-08-04T09:44:50.547Z,37.57
2022-08-04T09:47:25.741Z,37.49
2022-08-04T09:50:30.871Z,37.97
2022-08-04T09:53:21.993Z,37.85
2022-08-04T09:56:03.046Z,37.70
2022-08-04T09:58:51.091Z,37.81
2022-08-04T10:01:23.927Z,38.46
2022-08-04T10:03:52.917Z,38.94
2022-08-04T10:06:40.635Z,39.03
2022-08-04T10:09:27.129Z,39.17
2022-08-04T10:12:07.063Z,39.59
2022-08-04T10:14:41.878Z,39.07
2022-08-04T10:17:27.304Z,39.41
2022-08-04T10:20:04.430Z,39.48
2022-08-04T10:22:55.439Z,39.64
2022-08-04T10:26:07.017Z,40.06
2022-08-04T10:28:31.521Z,39.48
2022-08-04T10:31:04.889Z,40.12
2022-08-04T10:33:41.707Z,40.34
2022-08-04T10:36:11.687Z,40.34
2022-08-04T10:38:50.877Z,39.91
2022-08-04T10:41:27.637Z,40.14
2022-08-04T10:44:07.148Z,40.03
2022-08-04T10:46:38.655Z,39.80
2022-08-04T10:49:10.750Z,40.18
2022-08-04T10:51:57.218Z,40.54
2022-08-04T10:54:34.060Z,40.56
2022-08-04T10:57:08.570Z,40.59
2022-08-04T10:59:41.902Z,40.67
2022-08-04T11:02:27.261Z,40.53
2022-08-04T11:05:07.543Z,39.84
2022-08-04T11:07:38.512Z,40.26
2022-08-04T11:10:08.128Z,40.29
2022-08-04T11:12:36.739Z,40.89
2022-08-04T11:15:10.338Z,39.11
2022-08-04T11:17:44.942Z,39.74
2022-08-04T11:20:34.440Z,39.95
2022-08-04T11:23:11.186Z,40.66
2022-08-04T11:25:52.052Z,40.73
2022-08-04T11:28:30.371Z,40.75
2022-08-04T11:31:08.221Z,40.28
2022-08-04T11:33:42.489Z,40.10
2022-08-04T11:36:21.712Z,40.10
2022-08-04T11:38:57.992Z,39.89
2022-08-04T11:41:38.926Z,40.09
2022-08-04T11:44:12.600Z,39.50
2022-08-04T11:46:44.201Z,39.52
2022-08-04T11:49:22.202Z,39.45
2022-08-04T11:51:53.502Z,39.80
2022-08-04T11:54:22.457Z,39.68
2022-08-04T11:56:50.611Z,39.78
2022-08-04T11:59:20.881Z,39.63
2022-08-04T12:02:08.381Z,39.54
2022-08-04T12:04:47.285Z,39.67
2022-08-04T12:07:31.419Z,39.45
2022-08-04T12:10:10.734Z,39.79
2022-08-04T12:12:45.037Z,39.73
2022-08-04T12:15:19.760Z,39.90
2022-08-04T12:17:57.004Z,39.97
2022-08-04T12:20:32.089Z,40.06
2022-08-04T12:23:18.637Z,40.46
2022-08-04T12:25:55.687Z,39.96
2022-08-04T12:28:46.736Z,39.74
2022-08-04T12:31:23.519Z,39.50
2022-08-04T12:34:04.861Z,39.13
2022-08-04T12:36:38.645Z,39.36
2022-08-04T12:39:13.004Z,39.21
2022-08-04T12:41:46.667Z,38.68
2022-08-04T12:44:37.438Z,38.77
2022-08-04T12:47:36.739Z,38.89
2022-08-04T12:50:00.608Z,39.20
2022-08-04T12:52:59.256Z,38.29
2022-08-04T12:55:25.038Z,39.15
2022-08-04T12:57:54.650Z,38.55
2022-08-04T13:00:33.155Z,38.72
2022-08-04T13:03:10.138Z,38.55
2022-08-04T13:05:42.025Z,38.36
2022-08-04T13:08:12.319Z,38.83
2022-08-04T13:10:45.537Z,38.73
2022-08-04T13:13:17.173Z,38.86
2022-08-04T13:15:56.523Z,38.96
2022-08-04T13:18:30.047Z,38.51
2022-08-04T13:21:20.523Z,39.03
2022-08-04T13:24:10.444Z,38.32
2022-08-04T13:26:54.497Z,38.93
2022-08-04T13:29:59.973Z,38.76
2022-08-04T13:32:17.855Z,38.43
2022-08-04T13:34:48.837Z,38.55
2022-08-04T13:37:21.346Z,38.59
2022-08-04T13:39:55.659Z,38.86
2022-08-04T13:42:27.651Z,38.91
2022-08-04T13:44:59.018Z,39.08
2022-08-04T13:47:31.057Z,39.19
2022-08-04T13:50:12.970Z,39.25
2022-08-04T13:52:42.365Z,39.38
2022-08-04T13:55:19.848Z,39.02
2022-08-04T13:57:54.234Z,38.61
2022-08-04T14:00:29.826Z,38.69
2022-08-04T14:03:03.580Z,38.83
2022-08-04T14:06:11.617Z,39.05
2022-08-04T14:08:48.391Z,38.57
2022-08-04T14:12:06.828Z,38.43
2022-08-04T14:14:24.123Z,38.59
2022-08-04T14:17:01.255Z,38.49
2022-08-04T14:19:36.062Z,38.65
2022-08-04T14:22:05.193Z,38.68
2022-08-04T14:24:33.181Z,38.89
2022-08-04T14:27:01.757Z,38.68
2022-08-04T14:29:41.781Z,38.74
2022-08-04T14:32:14.287Z,38.75
2022-08-04T14:34:45.488Z,38.78
2022-08-04T14:37:19.709Z,38.62
2022-08-04T14:40:18.028Z,38.40
2022-08-04T14:42:42.999Z,38.28
2022-08-04T14:45:13.219Z,38.56
2022-08-04T14:47:52.480Z,38.49
2022-08-04T14:50:21.955Z,38.69
2022-08-04T14:52:50.024Z,38.46
2022-08-04T14:55:20.833Z,38.50
2022-08-04T14:58:35.798Z,38.48
2022-08-04T15:00:38.856Z,38.46
2022-08-04T15:03:09.090Z,38.36
2022-08-04T15:06:01.700Z,37.99
2022-08-04T15:08:31.030Z,37.98
2022-08-04T15:11:02.723Z,38.29
2022-08-04T15:13:32.092Z,38.23
2022-08-04T15:16:07.498Z,38.07
2022-08-04T15:18:38.815Z,37.95
2022-08-04T15:21:08.046Z,37.63
2022-08-04T15:23:38.669Z,37.89
2022-08-04T15:26:13.487Z,38.15
2022-08-04T15:28:48.029Z,38.23
2022-08-04T15:32:07.813Z,38.17
2022-08-04T15:34:07.996Z,37.84
2022-08-04T15:36:56.679Z,37.88
2022-08-04T15:39:36.937Z,37.66
2022-08-04T15:42:21.862Z,37.55
2022-08-04T15:45:21.023Z,37.44
2022-08-04T15:48:32.358Z,37.28
2022-08-04T15:51:07.008Z,37.51
2022-08-04T15:54:27.373Z,37.73
2022-08-04T15:57:01.909Z,37.74
2022-08-04T16:00:00.140Z,37.57
2022-08-04T16:02:39.849Z,37.65
2022-08-04T16:05:47.216Z,37.51
2022-08-04T16:08:17.749Z,37.56
2022-08-04T16:10:50.476Z,37.75
2022-08-04T16:13:20.275Z,37.72
2022-08-04T16:15:51.241Z,37.25
2022-08-04T16:18:38.325Z,37.38
2022-08-04T16:21:08.690Z,37.44
2022-08-04T16:24:00.745Z,37.59
2022-08-04T16:26:54.371Z,37.44
2022-08-04T16:29:42.333Z,37.32
2022-08-04T16:32:18.763Z,37.22
2022-08-04T16:34:56.505Z,37.35
2022-08-04T16:37:30.280Z,37.30
2022-08-04T16:40:34.634Z,37.27
2022-08-04T16:43:06.320Z,37.15
2022-08-04T16:45:59.829Z,37.39
2022-08-04T16:48:28.983Z,37.21
2022-08-04T16:51:05.174Z,37.21
2022-08-04T16:53:53.316Z,37.10
2022-08-04T16:56:34.553Z,37.14
2022-08-04T16:59:10.635Z,37.06
2022-08-04T17:01:39.404Z,36.84
2022-08-04T17:04:07.920Z,36.98
2022-08-04T17:06:38.474Z,37.03
2022-08-04T17:09:10.539Z,37.16
2022-08-04T17:11:40.372Z,36.99
2022-08-04T17:14:08.836Z,36.98
2022-08-04T17:16:40.452Z,36.84
2022-08-04T17:19:23.687Z,36.95
2022-08-04T17:22:04.576Z,36.77
2022-08-04T17:24:35.375Z,36.64
2022-08-04T17:28:08.539Z,36.69
2022-08-04T17:29:55.218Z,36.65
2022-08-04T17:32:24.179Z,36.43
2022-08-04T17:34:55.570Z,36.70
2022-08-04T17:37:40.137Z,36.53
2022-08-04T17:40:14.316Z,36.46
2022-08-04T17:42:47.969Z,36.46
2022-08-04T17:45:49.393Z,36.48
2022-08-04T17:48:12.020Z,36.25
2022-08-04T17:50:53.084Z,36.32
2022-08-04T17:54:01.294Z,36.24
2022-08-04T17:56:43.186Z,36.21
2022-08-04T17:59:55.738Z,36.21
2022-08-04T18:02:12.461Z,36.04
2022-08-04T18:05:05.826Z,36.13
2022-08-04T18:08:40.479Z,36.06
2022-08-04T18:10:52.675Z,35.88
2022-08-04T18:13:27.051Z,36.02
2022-08-04T18:16:14.554Z,35.94
2022-08-04T18:19:09.459Z,35.92
2022-08-04T18:21:45.643Z,35.68
2022-08-04T18:24:15.553Z,35.66
2022-08-04T18:26:45.886Z,35.62
2022-08-04T18:29:26.614Z,35.56
2022-08-04T18:32:04.594Z,35.39
2022-08-04T18:34:32.630Z,35.39
2022-08-04T18:37:04.659Z,35.29
2022-08-04T18:40:17.232Z,35.19
2022-08-04T18:42:41.101Z,35.04
2022-08-04T18:45:11.490Z,34.89
2022-08-04T18:47:59.136Z,34.83
2022-08-04T18:50:58.524Z,34.74
2022-08-04T18:53:17.675Z,34.62
2022-08-04T18:55:56.688Z,34.51
2022-08-04T18:58:28.100Z,34.32
2022-08-04T19:01:00.294Z,34.26
2022-08-04T19:03:33.162Z,34.21
2022-08-04T19:06:02.457Z,34.13
2022-08-04T19:08:33.087Z,33.93
2022-08-04T19:11:36.862Z,33.85
2022-08-04T19:13:58.046Z,33.69
2022-08-04T19:16:27.523Z,33.64
2022-08-04T19:18:58.121Z,33.57
2022-08-04T19:21:58.761Z,33.54
2022-08-04T19:24:32.409Z,33.47
2022-08-04T19:27:07.505Z,33.21
2022-08-04T19:29:40.627Z,33.12
2022-08-04T19:32:26.414Z,33.15
2022-08-04T19:34:56.207Z,33.14
2022-08-04T19:37:56.197Z,33.12
2022-08-04T19:40:13.452Z,32.96
2022-08-04T19:42:43.395Z,32.97
2022-08-04T19:45:15.917Z,32.75
2022-08-04T19:48:12.080Z,32.79
2022-08-04T19:50:34.558Z,32.69
2022-08-04T19:53:04.328Z,32.55
2022-08-04T19:55:49.892Z,32.47
2022-08-04T19:58:19.765Z,32.50
2022-08-04T20:00:51.272Z,32.44
2022-08-04T20:03:20.940Z,32.47
2022-08-04T20:05:53.257Z,32.34
2022-08-04T20:08:23.744Z,32.40
2022-08-04T20:10:52.721Z,32.46
2022-08-04T20:13:25.385Z,32.40
2022-08-04T20:15:59.382Z,32.33
2022-08-04T20:18:35.877Z,32.36
2022-08-04T20:21:24.224Z,32.34
2022-08-04T20:24:36.589Z,32.28
2022-08-04T20:26:53.416Z,32.27
2022-08-04T20:29:40.016Z,32.24
2022-08-04T20:32:10.242Z,32.05
2022-08-04T20:38:00.008Z,32.04
2022-08-04T20:40:17.416Z,31.95
2022-08-04T20:42:46.983Z,31.96
2022-08-04T20:45:16.784Z,31.90
2022-08-04T20:47:45.978Z,32.02
2022-08-04T20:50:29.565Z,32.02
2022-08-04T20:52:59.319Z,32.04
2022-08-04T20:55:29.723Z,32.10
2022-08-04T20:58:03.335Z,32.29
2022-08-04T21:00:32.427Z,32.35
2022-08-04T21:03:00.964Z,32.17
2022-08-04T21:05:31.635Z,32.22
2022-08-04T21:08:01.896Z,32.19
2022-08-04T21:10:30.204Z,32.08
2022-08-04T21:12:59.263Z,32.11
2022-08-04T21:15:58.039Z,31.77
2022-08-04T21:18:16.929Z,32.02
2022-08-04T21:20:45.409Z,32.19
2022-08-04T21:23:17.945Z,32.47
2022-08-04T21:25:50.749Z,32.58
2022-08-04T21:28:20.620Z,32.58
2022-08-04T21:30:54.618Z,32.52
2022-08-04T21:33:49.776Z,32.42
2022-08-04T21:36:13.863Z,32.44
2022-08-04T21:38:51.290Z,32.58
2022-08-04T21:41:24.810Z,32.65
2022-08-04T21:43:55.690Z,32.49
2022-08-04T21:46:23.863Z,32.25
2022-08-04T21:48:52.086Z,32.05
2022-08-04T21:51:58.372Z,32.12
2022-08-04T21:54:15.297Z,32.15
2022-08-04T21:56:50.920Z,31.87
2022-08-04T21:59:23.630Z,32.04
2022-08-04T22:02:00.650Z,31.90
2022-08-04T22:04:29.543Z,31.90
2022-08-04T22:06:57.509Z,31.92
2022-08-04T22:09:28.959Z,31.96
2022-08-04T22:11:57.101Z,31.91
2022-08-04T22:14:29.538Z,31.76
2022-08-04T22:17:02.904Z,31.71
2022-08-04T22:19:49.967Z,31.59
2022-08-04T22:22:25.804Z,31.55
2022-08-04T22:24:58.625Z,31.61
2022-08-04T22:27:47.570Z,31.44
2022-08-04T22:30:17.732Z,31.36
2022-08-04T22:32:47.227Z,31.57
2022-08-04T22:35:30.939Z,31.42
2022-08-04T22:38:06.978Z,31.56
2022-08-04T22:40:39.058Z,31.51
2022-08-04T22:43:07.386Z,31.40
2022-08-04T22:45:55.103Z,31.41
2022-08-04T22:48:23.836Z,31.30
2022-08-04T22:50:56.136Z,31.18
2022-08-04T22:53:24.266Z,31.31
2022-08-04T22:56:07.382Z,31.22
2022-08-04T22:58:44.816Z,31.28
2022-08-04T23:01:14.937Z,31.22
2022-08-04T23:03:51.161Z,31.08
2022-08-04T23:06:24.306Z,30.78
2022-08-04T23:08:52.842Z,30.92
2022-08-04T23:11:22.908Z,30.91
2022-08-04T23:13:50.879Z,30.88
2022-08-04T23:16:19.833Z,30.87
2022-08-04T23:18:48.384Z,30.74
2022-08-04T23:21:24.691Z,30.78
2022-08-04T23:24:00.780Z,30.71
2022-08-04T23:26:32.254Z,30.70
2022-08-04T23:29:03.720Z,30.79
2022-08-04T23:31:40.572Z,30.56
2022-08-04T23:34:12.202Z,30.52
2022-08-04T23:36:40.941Z,30.60
2022-08-04T23:39:10.577Z,30.40
2022-08-04T23:41:53.249Z,30.45
2022-08-04T23:44:26.711Z,30.43
2022-08-04T23:47:01.605Z,30.36
2022-08-04T23:49:43.709Z,30.11
2022-08-04T23:52:23.372Z,30.04
2022-08-04T23:54:58.218Z,30.14
2022-08-04T23:58:02.176Z,30.21
